Time;durP1;ratioP1;P1;durP2;ratioP2;P2;SDS_P1;SDS_P2;PMS_P1;PMS_P2;Temp;Humidity;BMP_temperature;BMP_pressure;BME280_temperature;BME280_humidity;BME280_pressure;Samples;Min_cycle;Max_cycle;Signal;HPM_P1;HPM_P2
2022/11/04 00:02:29;;;;;;;0.10;0.10;;;;;;;10.07;100.00;99976.84;10453595;28;20025;-76
2022/11/04 00:12:51;;;;;;;0.00;0.00;;;;;;;10.07;100.00;99971.53;10450911;28;20487;-75
2022/11/04 00:17:52;;;;;;;0.10;0.10;;;;;;;10.09;100.00;99950.88;10450390;28;20051;-75
2022/11/04 00:33:37;;;;;;;0.00;0.00;;;;;;;10.19;100.00;99932.84;10483169;28;20426;-76
2022/11/04 00:38:38;;;;;;;0.10;0.10;;;;;;;10.22;100.00;99936.97;10490231;28;20017;-76
2022/11/04 00:43:38;;;;;;;0.10;0.10;;;;;;;10.23;100.00;99947.44;10490070;28;20020;-76
2022/11/04 00:48:38;;;;;;;0.00;0.00;;;;;;;10.23;100.00;99949.28;10490139;28;20391;-76
2022/11/04 00:53:39;;;;;;;0.10;0.10;;;;;;;10.23;100.00;99943.94;10481923;28;20096;-76
2022/11/04 00:58:39;;;;;;;0.10;0.10;;;;;;;10.25;100.00;99944.63;10448300;28;20642;-76
2022/11/04 01:03:39;;;;;;;0.10;0.10;;;;;;;10.25;100.00;99955.25;10448855;28;20024;-76
2022/11/04 01:08:40;;;;;;;0.00;0.00;;;;;;;10.22;100.00;99945.78;10448807;28;20039;-76
2022/11/04 01:13:40;;;;;;;0.10;0.10;;;;;;;10.18;100.00;99950.66;10449309;28;20027;-76
2022/11/04 01:18:40;;;;;;;0.00;0.00;;;;;;;10.12;100.00;99923.91;10485514;28;20047;-76
2022/11/04 01:23:43;;;;;;;0.00;0.00;;;;;;;10.09;100.00;99924.25;10490219;28;20082;-76
2022/11/04 01:28:43;;;;;;;0.00;0.00;;;;;;;10.05;100.00;99922.97;10481244;28;20116;-76
2022/11/04 01:33:44;;;;;;;0.10;0.10;;;;;;;10.01;100.00;99913.69;10480166;28;20103;-76
2022/11/04 01:38:44;;;;;;;0.10;0.10;;;;;;;9.98;100.00;99909.56;10489479;28;20077;-76
2022/11/04 01:43:55;;;;;;;0.10;0.10;;;;;;;9.96;100.00;99907.06;10489458;28;20037;-76
2022/11/04 01:49:03;;;;;;;0.10;0.10;;;;;;;9.97;100.00;99906.03;10489143;28;20016;-76
2022/11/04 01:54:05;;;;;;;0.10;0.10;;;;;;;10.00;100.00;99912.84;10451570;28;20078;-76
2022/11/04 01:59:12;;;;;;;0.10;0.10;;;;;;;10.03;100.00;99914.31;10447718;28;20025;-76
2022/11/04 02:04:25;;;;;;;0.00;0.00;;;;;;;10.01;100.00;99885.25;10447325;28;20029;-76
2022/11/04 02:09:28;;;;;;;0.10;0.10;;;;;;;10.08;100.00;99890.69;10450531;28;20479;-76
2022/11/04 02:14:31;;;;;;;0.10;0.10;;;;;;;10.10;100.00;99886.84;10485662;28;20020;-76
2022/11/04 02:19:59;;;;;;;0.10;0.10;;;;;;;10.13;100.00;99897.13;10494177;28;20086;-76
2022/11/04 02:25:08;;;;;;;0.00;0.00;;;;;;;10.18;100.00;99877.94;10484870;28;20027;-76
2022/11/04 02:30:20;;;;;;;0.10;0.10;;;;;;;10.22;100.00;99868.63;10453967;28;20033;-76
2022/11/04 02:35:35;;;;;;;0.10;0.10;;;;;;;10.26;100.00;99888.53;10454242;28;20418;-76
2022/11/04 02:41:04;;;;;;;0.10;0.10;;;;;;;10.27;100.00;99874.25;10454065;28;20027;-76
2022/11/04 02:46:18;;;;;;;0.10;0.10;;;;;;;10.29;100.00;99892.69;10454142;28;20198;-76
2022/11/04 02:51:24;;;;;;;0.05;0.05;;;;;;;10.30;100.00;99899.69;10453640;28;20035;-75
2022/11/04 02:56:27;;;;;;;0.10;0.10;;;;;;;10.33;100.00;99889.50;10452937;28;20029;-75
2022/11/04 03:01:33;;;;;;;0.00;0.00;;;;;;;10.33;100.00;99892.16;10470577;28;20031;-75
2022/11/04 03:06:35;;;;;;;0.10;0.10;;;;;;;10.35;100.00;99882.16;10496079;28;20493;-75
2022/11/04 03:11:39;;;;;;;0.10;0.10;;;;;;;10.37;100.00;99860.69;10493609;28;20020;-74
2022/11/04 03:16:48;;;;;;;0.10;0.10;;;;;;;10.35;100.00;99857.38;10494715;28;20556;-75
2022/11/04 03:22:03;;;;;;;0.10;0.10;;;;;;;10.43;100.00;99870.59;10492385;28;20029;-74
2022/11/04 03:27:24;;;;;;;0.10;0.10;;;;;;;10.50;100.00;99881.34;10495079;28;20386;-75
2022/11/04 03:32:46;;;;;;;0.10;0.10;;;;;;;10.53;100.00;99884.50;10454220;28;20059;-74
2022/11/04 03:37:48;;;;;;;0.10;0.10;;;;;;;10.53;100.00;99892.47;10489287;28;20111;-75
2022/11/04 03:42:56;;;;;;;0.10;0.10;;;;;;;10.58;100.00;99895.41;10492194;28;20044;-75
2022/11/04 03:47:57;;;;;;;0.10;0.10;;;;;;;10.61;100.00;99886.22;10487499;28;20017;-75
2022/11/04 03:52:58;;;;;;;0.10;0.10;;;;;;;10.64;100.00;99881.34;10457221;28;20095;-75
2022/11/04 03:58:21;;;;;;;0.10;0.10;;;;;;;10.71;100.00;99885.97;10491026;28;20016;-76
2022/11/04 04:03:35;;;;;;;0.10;0.10;;;;;;;10.76;100.00;99905.72;10447135;28;20124;-76
2022/11/04 04:09:04;;;;;;;0.10;0.10;;;;;;;10.77;100.00;99902.06;10456599;28;20103;-75
2022/11/04 04:14:38;;;;;;;0.10;0.10;;;;;;;10.81;100.00;99902.50;10452796;28;20414;-75
2022/11/04 04:19:35;;;;;;;0.10;0.10;;;;;;;10.83;100.00;99914.63;10451286;28;20106;-75
2022/11/04 04:30:00;;;;;;;0.00;0.00;;;;;;;10.76;100.00;99931.53;10480851;28;20028;-76
2022/11/04 04:45:50;;;;;;;0.10;0.10;;;;;;;10.63;100.00;99966.78;10470365;28;20021;-76
2022/11/04 04:50:55;;;;;;;0.00;0.00;;;;;;;10.58;100.00;99975.28;10470642;28;20074;-75
2022/11/04 04:55:56;;;;;;;0.10;0.10;;;;;;;10.48;100.00;99979.22;10491441;28;20082;-75
2022/11/04 05:00:56;;;;;;;0.00;0.00;;;;;;;10.37;100.00;99997.28;10463824;28;20028;-76
2022/11/04 05:05:58;;;;;;;0.03;0.03;;;;;;;10.33;100.00;100003.97;10436831;28;20090;-75
2022/11/04 05:10:59;;;;;;;0.10;0.10;;;;;;;10.32;100.00;100023.59;10464453;28;20513;-75
2022/11/04 05:16:05;;;;;;;0.10;0.10;;;;;;;10.32;100.00;100036.06;10478848;28;20012;-75
2022/11/04 05:21:07;;;;;;;0.03;0.03;;;;;;;10.34;100.00;100040.22;10470857;28;20503;-75
2022/11/04 05:26:07;;;;;;;0.10;0.10;;;;;;;10.35;100.00;100031.22;10480562;28;20025;-75
2022/11/04 05:31:08;;;;;;;0.10;0.10;;;;;;;10.34;100.00;100042.88;10479267;22;20395;-77
2022/11/04 05:36:13;;;;;;;0.00;0.00;;;;;;;10.33;100.00;100051.88;10502023;28;20642;-78
2022/11/04 05:41:24;;;;;;;0.10;0.10;;;;;;;10.33;100.00;100059.88;10509751;28;20024;-77
2022/11/04 05:46:25;;;;;;;0.10;0.10;;;;;;;10.33;100.00;100067.84;10522915;28;20028;-77
2022/11/04 05:51:27;;;;;;;0.10;0.10;;;;;;;10.31;100.00;100077.84;10518891;28;20020;-77
2022/11/04 05:56:27;;;;;;;0.00;0.00;;;;;;;10.25;100.00;100078.50;10517772;28;20629;-78
2022/11/04 06:01:36;;;;;;;0.10;0.10;;;;;;;10.18;100.00;100088.19;10505675;28;20032;-77
2022/11/04 06:06:37;;;;;;;0.10;0.10;;;;;;;10.08;100.00;100088.41;10534523;28;20146;-77
2022/11/04 06:11:38;;;;;;;0.10;0.10;;;;;;;10.01;100.00;100103.44;10498854;28;20012;-77
2022/11/04 06:16:38;;;;;;;0.10;0.10;;;;;;;9.92;100.00;100113.28;10507407;28;20036;-77
2022/11/04 06:21:38;;;;;;;0.10;0.10;;;;;;;9.84;100.00;100121.28;10517826;28;20016;-77
2022/11/04 06:26:39;;;;;;;0.10;0.10;;;;;;;9.77;100.00;100122.94;10531726;28;20024;-77
2022/11/04 06:31:39;;;;;;;0.10;0.10;;;;;;;9.71;100.00;100126.28;10510106;28;20024;-77
2022/11/04 06:36:39;;;;;;;0.10;0.10;;;;;;;9.66;100.00;100126.00;10495880;28;20263;-77
2022/11/04 06:41:40;;;;;;;0.10;0.10;;;;;;;9.62;100.00;100133.47;10494193;28;20028;-77
2022/11/04 06:46:42;;;;;;;0.10;0.10;;;;;;;9.62;100.00;100140.59;10518328;28;20448;-77
2022/11/04 06:51:42;;;;;;;0.10;0.10;;;;;;;9.56;100.00;100144.78;10530070;28;20058;-77
2022/11/04 06:56:43;;;;;;;0.10;0.10;;;;;;;9.53;100.00;100147.78;10499993;28;20057;-77
2022/11/04 07:01:44;;;;;;;0.00;0.00;;;;;;;9.51;100.00;100171.03;10493750;28;20029;-77
2022/11/04 07:06:45;;;;;;;0.00;0.00;;;;;;;9.53;100.00;100177.00;10514854;28;20019;-77
2022/11/04 07:11:45;;;;;;;0.10;0.10;;;;;;;9.56;100.00;100186.50;10534673;28;20012;-77
2022/11/04 07:16:49;;;;;;;0.10;0.10;;;;;;;9.53;100.00;100196.44;10520891;28;20021;-77
2022/11/04 07:21:49;;;;;;;0.00;0.00;;;;;;;9.52;100.00;100199.28;10498636;28;20073;-77
2022/11/04 07:26:49;;;;;;;0.10;0.10;;;;;;;9.60;100.00;100230.34;10512080;28;20436;-77
2022/11/04 07:31:50;;;;;;;0.10;0.10;;;;;;;9.67;100.00;100240.16;10517438;28;20277;-77
2022/11/04 07:36:50;;;;;;;0.10;0.10;;;;;;;9.72;100.00;100240.50;10520150;28;20490;-77
2022/11/04 07:41:50;;;;;;;0.10;0.10;;;;;;;9.73;100.00;100251.94;10519350;28;20493;-77
2022/11/04 07:46:51;;;;;;;0.10;0.10;;;;;;;9.76;100.00;100267.56;10519434;28;20024;-77
2022/11/04 07:51:51;;;;;;;0.08;0.08;;;;;;;9.81;100.00;100273.22;10515232;28;20543;-77
2022/11/04 07:56:52;;;;;;;0.10;0.10;;;;;;;10.02;100.00;100271.88;10514460;28;20024;-77
2022/11/04 08:01:52;;;;;;;0.00;0.00;;;;;;;10.07;100.00;100278.34;10510342;28;20024;-77
2022/11/04 08:06:53;;;;;;;0.10;0.10;;;;;;;10.09;100.00;100270.19;10511248;28;20035;-77
2022/11/04 08:11:53;;;;;;;0.10;0.10;;;;;;;10.13;100.00;100269.69;10517134;28;20109;-77
2022/11/04 08:16:53;;;;;;;0.00;0.00;;;;;;;10.21;100.00;100279.50;10523064;28;20398;-77
2022/11/04 08:21:54;;;;;;;0.10;0.10;;;;;;;10.36;100.00;100275.16;10498459;28;20551;-77
2022/11/04 08:26:54;;;;;;;0.10;0.10;;;;;;;10.43;100.00;100288.59;10502190;28;20376;-77
2022/11/04 08:31:54;;;;;;;0.10;0.10;;;;;;;10.47;100.00;100267.78;10510900;28;20361;-77
2022/11/04 08:36:56;;;;;;;0.10;0.10;;;;;;;10.56;100.00;100282.72;10512671;28;20077;-77
2022/11/04 08:41:56;;;;;;;0.10;0.10;;;;;;;10.59;100.00;100285.88;10523612;28;20039;-77
2022/11/04 08:46:57;;;;;;;0.10;0.10;;;;;;;10.61;100.00;100296.34;10514570;28;20016;-77
2022/11/04 08:51:59;;;;;;;0.03;0.03;;;;;;;10.67;100.00;100306.31;10514762;28;20462;-77
2022/11/04 08:56:59;;;;;;;0.10;0.10;;;;;;;10.69;100.00;100311.47;10502559;28;20380;-77
2022/11/04 09:02:00;;;;;;;0.00;0.00;;;;;;;10.68;100.00;100323.16;10513603;28;20020;-77
2022/11/04 09:07:01;;;;;;;0.00;0.00;;;;;;;10.68;100.00;100331.97;10511700;28;20269;-77
2022/11/04 09:12:01;;;;;;;0.10;0.10;;;;;;;10.80;100.00;100343.09;10513557;28;20028;-77
2022/11/04 09:17:02;;;;;;;0.10;0.10;;;;;;;10.98;100.00;100346.31;10485042;28;20029;-77
2022/11/04 09:22:02;;;;;;;0.10;0.10;;;;;;;11.20;100.00;100347.41;10504741;28;20313;-77
2022/11/04 09:27:04;;;;;;;0.00;0.00;;;;;;;11.38;100.00;100356.97;10516623;28;20051;-77
2022/11/04 09:32:04;;;;;;;0.00;0.00;;;;;;;11.78;100.00;100372.69;10524379;28;20036;-77
2022/11/04 09:37:05;;;;;;;0.10;0.10;;;;;;;11.98;100.00;100374.91;10515156;28;20081;-78
2022/11/04 09:42:52;;;;;;;0.00;0.00;;;;;;;11.83;100.00;100385.50;10511740;28;20070;-77
2022/11/04 09:47:58;;;;;;;0.00;0.00;;;;;;;11.59;100.00;100383.81;10506406;28;20455;-77
2022/11/04 09:53:16;;;;;;;0.08;0.08;;;;;;;11.88;100.00;100380.47;10520107;28;20069;-77
2022/11/04 09:58:17;;;;;;;0.00;0.00;;;;;;;12.17;100.00;100385.09;10497512;28;20031;-77
2022/11/04 10:03:52;;;;;;;0.00;0.00;;;;;;;12.55;100.00;100377.03;10522442;28;20020;-77
2022/11/04 10:09:06;;;;;;;0.00;0.00;;;;;;;12.69;100.00;100378.06;10486483;28;20051;-77
2022/11/04 10:14:08;;;;;;;0.10;0.10;;;;;;;12.52;100.00;100381.94;10509680;28;20490;-77
2022/11/04 10:19:17;;;;;;;0.03;0.03;;;;;;;12.52;100.00;100389.94;10518665;28;20025;-77
2022/11/04 10:24:23;;;;;;;0.10;0.10;;;;;;;12.56;100.00;100384.03;10520061;28;20017;-77
2022/11/04 10:29:35;;;;;;;0.10;0.10;;;;;;;12.63;100.00;100393.00;10520044;28;20031;-77
2022/11/04 10:34:42;;;;;;;0.10;0.10;;;;;;;12.72;100.00;100393.75;10507414;28;20028;-77
2022/11/04 10:39:44;;;;;;;0.10;0.10;;;;;;;12.78;100.00;100398.34;10501466;28;20371;-77
2022/11/04 10:44:48;;;;;;;0.10;0.10;;;;;;;12.82;100.00;100393.47;10515241;28;20013;-77
2022/11/04 10:50:12;;;;;;;0.10;0.10;;;;;;;12.68;100.00;100379.06;10514158;28;20025;-77
2022/11/04 10:55:38;;;;;;;0.10;0.10;;;;;;;12.57;100.00;100385.72;10505652;28;20487;-77
2022/11/04 11:00:40;;;;;;;0.10;0.10;;;;;;;12.60;100.00;100385.34;10520692;28;20096;-77
2022/11/04 11:05:40;;;;;;;0.00;0.00;;;;;;;12.67;100.00;100398.81;10521153;28;20474;-77
2022/11/04 11:10:50;;;;;;;0.00;0.00;;;;;;;12.69;100.00;100407.47;10514949;28;20024;-77
2022/11/04 11:16:16;;;;;;;0.10;0.10;;;;;;;12.76;100.00;100427.09;10508920;28;20016;-77
2022/11/04 11:21:22;;;;;;;0.10;0.10;;;;;;;12.88;100.00;100435.47;10520868;28;20501;-77
2022/11/04 11:26:31;;;;;;;0.10;0.10;;;;;;;12.76;100.00;100431.63;10505728;28;20063;-77
2022/11/04 11:31:36;;;;;;;0.10;0.10;;;;;;;12.65;100.00;100444.44;10514240;28;20028;-77
2022/11/04 11:36:37;;;;;;;0.10;0.10;;;;;;;12.71;100.00;100453.53;10507646;28;20031;-77
2022/11/04 11:41:56;;;;;;;0.10;0.10;;;;;;;12.88;100.00;100468.38;10511182;28;20378;-77
2022/11/04 11:47:16;;;;;;;0.00;0.00;;;;;;;13.03;100.00;100476.44;10506573;28;20478;-77
2022/11/04 11:52:32;;;;;;;0.10;0.10;;;;;;;13.04;100.00;100471.91;10521124;28;20020;-77
2022/11/04 11:57:48;;;;;;;0.10;0.10;;;;;;;13.02;100.00;100485.47;10525793;28;20071;-77
2022/11/04 12:03:10;;;;;;;0.10;0.10;;;;;;;13.16;100.00;100483.00;10515361;28;20402;-77
2022/11/04 12:08:41;;;;;;;0.10;0.10;;;;;;;13.32;100.00;100485.47;10501191;28;20486;-77
2022/11/04 12:13:54;;;;;;;0.10;0.10;;;;;;;13.43;100.00;100492.22;10515478;28;20016;-77
2022/11/04 12:19:50;;;;;;;0.00;0.00;;;;;;;13.23;100.00;100487.41;10502659;28;20035;-77
2022/11/04 12:24:55;;;;;;;0.10;0.10;;;;;;;13.09;100.00;100491.75;10490386;28;20037;-77
2022/11/04 12:30:24;;;;;;;0.00;0.00;;;;;;;13.02;100.00;100493.47;10505022;28;20053;-77
2022/11/04 12:35:42;;;;;;;0.10;0.10;;;;;;;12.91;100.00;100501.94;10492651;28;20024;-77
2022/11/04 12:41:01;;;;;;;0.10;0.10;;;;;;;12.77;100.00;100508.09;10507204;28;20073;-77
2022/11/04 12:46:06;;;;;;;0.00;0.00;;;;;;;12.72;100.00;100510.50;10499551;28;20085;-77
2022/11/04 12:51:52;;;;;;;0.10;0.10;;;;;;;12.74;100.00;100524.50;10508420;28;20112;-77
2022/11/04 12:57:30;;;;;;;0.10;0.10;;;;;;;12.75;100.00;100510.13;10502906;28;20040;-77
2022/11/04 13:02:38;;;;;;;0.10;0.10;;;;;;;12.77;100.00;100516.09;10453419;28;20035;-77
2022/11/04 13:07:46;;;;;;;0.10;0.10;;;;;;;12.72;100.00;100526.53;10500038;28;20553;-77
2022/11/04 13:12:49;;;;;;;0.10;0.10;;;;;;;12.65;100.00;100526.41;10514597;28;20012;-77
2022/11/04 13:17:56;;;;;;;0.10;0.10;;;;;;;12.58;100.00;100531.66;10503979;28;20108;-77
2022/11/04 13:23:01;;;;;;;0.10;0.10;;;;;;;12.69;100.00;100536.56;10505103;28;20398;-76
2022/11/04 13:28:02;;;;;;;0.10;0.10;;;;;;;12.79;100.00;100538.16;10491399;28;20036;-77
2022/11/04 13:33:07;;;;;;;0.10;0.10;;;;;;;12.80;100.00;100540.66;10504131;28;20021;-76
2022/11/04 13:38:24;;;;;;;0.10;0.10;;;;;;;12.78;100.00;100553.34;10502977;28;20442;-76
2022/11/04 13:43:38;;;;;;;0.10;0.10;;;;;;;12.73;100.00;100554.91;10504989;28;20031;-76
2022/11/04 13:49:08;;;;;;;0.10;0.10;;;;;;;12.77;100.00;100566.88;10501129;28;20443;-78
2022/11/04 13:54:30;;;;;;;0.10;0.10;;;;;;;12.67;100.00;100577.84;10490080;28;20044;-79
2022/11/04 13:59:31;;;;;;;0.10;0.10;;;;;;;12.50;100.00;100579.78;10502993;28;20023;-77
2022/11/04 14:04:31;;;;;;;0.10;0.10;;;;;;;12.46;100.00;100597.19;10506925;28;20561;-76
2022/11/04 14:09:34;;;;;;;0.10;0.10;;;;;;;12.46;100.00;100605.19;10502769;28;20024;-76
2022/11/04 14:14:42;;;;;;;0.00;0.00;;;;;;;12.40;100.00;100608.59;10511890;28;20051;-76
2022/11/04 14:19:47;;;;;;;0.10;0.10;;;;;;;12.32;100.00;100612.13;10513189;28;20020;-76
2022/11/04 14:24:56;;;;;;;0.10;0.10;;;;;;;12.23;100.00;100614.00;10530828;28;20424;-76
2022/11/04 14:29:57;;;;;;;0.10;0.10;;;;;;;12.18;100.00;100621.69;10511726;28;20021;-76
2022/11/04 14:35:02;;;;;;;0.00;0.00;;;;;;;12.13;100.00;100628.56;10520600;28;20012;-76
2022/11/04 14:40:21;;;;;;;0.10;0.10;;;;;;;12.10;100.00;100635.13;10535332;28;20328;-76
2022/11/04 14:45:24;;;;;;;0.05;0.05;;;;;;;12.05;100.00;100636.63;10513779;28;20020;-76
2022/11/04 14:50:27;;;;;;;0.00;0.00;;;;;;;11.96;100.00;100652.69;10508103;28;20036;-76
2022/11/04 14:55:29;;;;;;;0.10;0.10;;;;;;;11.89;100.00;100656.19;10519220;28;20027;-76
2022/11/04 15:00:55;;;;;;;0.10;0.10;;;;;;;11.65;100.00;100659.75;10522186;28;20099;-76
2022/11/04 15:05:59;;;;;;;0.00;0.00;;;;;;;11.37;100.00;100653.94;10510727;28;20131;-75
2022/11/04 15:11:03;;;;;;;0.00;0.00;;;;;;;11.23;100.00;100666.16;10512856;28;20020;-76
2022/11/04 15:16:13;;;;;;;0.10;0.10;;;;;;;11.10;100.00;100666.63;10526557;28;20359;-75
2022/11/04 15:21:14;;;;;;;0.10;0.10;;;;;;;11.00;100.00;100673.97;10520464;28;20027;-75
2022/11/04 15:26:29;;;;;;;0.10;0.10;;;;;;;10.84;100.00;100672.09;10508525;28;20059;-76
2022/11/04 15:31:31;;;;;;;0.00;0.00;;;;;;;10.73;100.00;100681.22;10510904;28;20399;-75
2022/11/04 15:36:38;;;;;;;0.10;0.10;;;;;;;10.59;100.00;100674.72;10502533;28;20016;-75
2022/11/04 15:47:02;;;;;;;0.05;0.05;;;;;;;10.32;100.00;100701.59;10511328;28;20404;-75
2022/11/04 15:52:10;;;;;;;0.00;0.00;;;;;;;10.19;100.00;100697.53;10507235;28;20048;-75
2022/11/04 15:57:15;;;;;;;0.10;0.10;;;;;;;10.12;100.00;100704.50;10505665;28;20076;-75
2022/11/04 16:02:31;;;;;;;;;;;;;;;10.04;100.00;100704.44;10517420;28;20023;-75
2022/11/04 16:07:45;;;;;;;0.10;0.10;;;;;;;9.91;100.00;100717.34;10503146;28;19908;-75
2022/11/04 16:12:45;;;;;;;0.00;0.00;;;;;;;9.80;100.00;100723.75;10513319;28;20044;-75
2022/11/04 16:17:45;;;;;;;0.00;0.00;;;;;;;9.72;100.00;100734.34;10511908;28;20354;-76
2022/11/04 16:22:46;;;;;;;0.00;0.00;;;;;;;9.63;100.00;100737.91;10497208;28;20020;-75
2022/11/04 16:27:46;;;;;;;0.05;0.05;;;;;;;9.53;100.00;100748.66;10515299;28;20099;-75
2022/11/04 16:32:55;;;;;;;0.10;0.10;;;;;;;9.44;100.00;100753.06;10494071;28;20033;-76
2022/11/04 16:37:59;;;;;;;0.10;0.10;;;;;;;9.35;100.00;100771.78;10505804;28;20052;-75
2022/11/04 16:42:59;;;;;;;0.10;0.10;;;;;;;9.29;100.00;100779.38;10531612;28;20077;-75
2022/11/04 16:48:00;;;;;;;0.10;0.10;;;;;;;9.31;100.00;100781.88;10513561;28;20140;-75
2022/11/04 16:53:02;;;;;;;0.00;0.00;;;;;;;9.29;100.00;100783.84;10489780;28;20012;-75
2022/11/04 16:58:03;;;;;;;0.10;0.10;;;;;;;9.26;100.00;100789.47;10487996;28;20028;-75
2022/11/04 17:03:20;;;;;;;0.10;0.10;;;;;;;9.26;100.00;100792.13;10509822;28;20386;-76
2022/11/04 17:08:20;;;;;;;0.10;0.10;;;;;;;9.28;100.00;100804.28;10492235;28;20028;-76
2022/11/04 17:13:21;;;;;;;0.00;0.00;;;;;;;9.34;100.00;100816.13;10493436;28;20486;-75
2022/11/04 17:18:21;;;;;;;0.10;0.10;;;;;;;9.37;100.00;100810.50;10489993;28;20031;-75
2022/11/04 17:23:22;;;;;;;0.10;0.10;;;;;;;9.40;100.00;100806.72;10507250;28;20370;-76
2022/11/04 17:28:22;;;;;;;0.00;0.00;;;;;;;9.41;100.00;100814.53;10521015;28;20594;-75
2022/11/04 17:33:22;;;;;;;0.10;0.10;;;;;;;9.41;100.00;100821.69;10477194;22;20330;-79
2022/11/04 17:38:23;;;;;;;0.10;0.10;;;;;;;9.35;100.00;100820.44;10458247;28;20052;-79
2022/11/04 17:48:42;;;;;;;0.10;0.10;;;;;;;9.26;100.00;100830.16;10462966;28;20383;-79
2022/11/04 17:53:43;;;;;;;0.10;0.10;;;;;;;9.13;100.00;100815.56;10467815;28;20100;-78
2022/11/04 17:58:43;;;;;;;0.10;0.10;;;;;;;9.01;100.00;100834.38;10461955;28;20024;-79
2022/11/04 18:03:44;;;;;;;0.10;0.10;;;;;;;8.86;100.00;100835.88;10464420;28;20078;-79
2022/11/04 18:08:44;;;;;;;0.00;0.00;;;;;;;8.73;100.00;100830.06;10466308;28;20159;-79
2022/11/04 18:13:44;;;;;;;0.10;0.10;;;;;;;8.60;100.00;100839.19;10467720;28;20017;-79
2022/11/04 18:18:45;;;;;;;0.10;0.10;;;;;;;8.49;100.00;100838.53;10465013;28;20029;-79
2022/11/04 18:23:45;;;;;;;0.00;0.00;;;;;;;8.36;100.00;100846.81;10464612;28;20028;-79
2022/11/04 18:28:45;;;;;;;0.00;0.00;;;;;;;8.22;100.00;100842.78;10460832;28;20088;-79
2022/11/04 18:33:46;;;;;;;0.00;0.00;;;;;;;8.12;100.00;100856.06;10460688;28;20093;-79
2022/11/04 18:38:46;;;;;;;0.10;0.10;;;;;;;7.99;100.00;100862.66;10462384;28;20111;-79
2022/11/04 18:43:47;;;;;;;0.00;0.00;;;;;;;7.92;100.00;100865.88;10463569;28;20294;-79
2022/11/04 18:48:49;;;;;;;0.10;0.10;;;;;;;7.89;100.00;100865.31;10463225;28;20017;-79
2022/11/04 18:53:50;;;;;;;0.00;0.00;;;;;;;7.83;100.00;100868.53;10462533;28;20337;-80
2022/11/04 18:58:51;;;;;;;0.10;0.10;;;;;;;7.80;100.00;100874.97;10460205;28;20040;-78
2022/11/04 19:03:51;;;;;;;0.03;0.03;;;;;;;7.75;100.00;100881.66;10459761;28;20027;-79
2022/11/04 19:08:55;;;;;;;0.00;0.00;;;;;;;7.71;100.00;100895.19;10461517;28;20028;-78
2022/11/04 19:14:01;;;;;;;0.10;0.10;;;;;;;7.69;100.00;100902.44;10460498;28;20271;-79
2022/11/04 19:19:03;;;;;;;0.00;0.00;;;;;;;7.72;100.00;100906.63;10457143;28;20354;-79
2022/11/04 19:24:05;;;;;;;0.10;0.10;;;;;;;7.75;100.00;100910.81;10461670;28;20033;-79
2022/11/04 19:29:05;;;;;;;0.10;0.10;;;;;;;7.71;100.00;100913.75;10457953;28;20025;-80
2022/11/04 19:34:07;;;;;;;0.08;0.08;;;;;;;7.69;100.00;100920.16;10459496;28;20045;-79
2022/11/04 19:39:07;;;;;;;0.00;0.00;;;;;;;7.61;100.00;100920.84;10459986;28;20016;-79
2022/11/04 19:44:10;;;;;;;0.10;0.10;;;;;;;7.54;100.00;100932.97;10459265;28;20021;-79
2022/11/04 19:49:11;;;;;;;0.10;0.10;;;;;;;7.51;100.00;100932.41;10459132;28;20114;-79
2022/11/04 19:54:12;;;;;;;0.00;0.00;;;;;;;7.48;100.00;100944.97;10459055;28;20357;-79
2022/11/04 19:59:12;;;;;;;0.03;0.03;;;;;;;7.44;100.00;100942.72;10454707;28;20028;-79
2022/11/04 20:04:13;;;;;;;0.10;0.10;;;;;;;7.36;100.00;100942.53;10456939;28;20033;-79
2022/11/04 20:09:13;;;;;;;0.00;0.00;;;;;;;7.30;100.00;100951.91;10458770;28;20082;-79
2022/11/04 20:14:16;;;;;;;0.10;0.10;;;;;;;7.23;100.00;100948.09;10457513;28;20032;-79
2022/11/04 20:19:17;;;;;;;0.00;0.00;;;;;;;7.15;100.00;100956.69;10455472;28;20021;-78
2022/11/04 20:24:18;;;;;;;0.00;0.00;;;;;;;7.09;100.00;100959.88;10456811;28;20025;-78
2022/11/04 20:29:18;;;;;;;0.10;0.10;;;;;;;7.04;100.00;100962.13;10451965;28;20368;-79
2022/11/04 20:34:18;;;;;;;0.10;0.10;;;;;;;7.01;100.00;100968.50;10454681;28;20024;-78
2022/11/04 20:39:19;;;;;;;0.05;0.05;;;;;;;6.93;100.00;100970.97;10455010;28;20028;-79
2022/11/04 20:44:20;;;;;;;0.00;0.00;;;;;;;6.86;100.00;100974.28;10455454;28;20033;-79
2022/11/04 20:49:21;;;;;;;0.00;0.00;;;;;;;6.78;100.00;100983.72;10448090;28;20060;-79
2022/11/04 20:54:21;;;;;;;0.00;0.00;;;;;;;6.73;100.00;100995.69;10443448;28;20024;-79
2022/11/04 20:59:22;;;;;;;0.00;0.00;;;;;;;6.66;100.00;101003.31;10446194;28;20309;-79
2022/11/04 21:04:22;;;;;;;0.00;0.00;;;;;;;6.64;100.00;101007.88;10443059;28;20392;-78
2022/11/04 21:09:22;;;;;;;0.10;0.10;;;;;;;6.62;100.00;101014.25;10453912;28;20499;-78
2022/11/04 21:14:22;;;;;;;0.00;0.00;;;;;;;6.58;100.00;101009.22;10454607;28;20024;-78
2022/11/04 21:19:23;;;;;;;0.10;0.10;;;;;;;6.56;100.00;101024.41;10454690;28;20136;-78
2022/11/04 21:24:23;;;;;;;0.00;0.00;;;;;;;6.51;100.00;101028.38;10453026;28;20112;-78
2022/11/04 21:29:23;;;;;;;0.10;0.10;;;;;;;6.48;100.00;101044.53;10448888;28;20276;-78
2022/11/04 21:34:24;;;;;;;0.00;0.00;;;;;;;6.47;100.00;101043.69;10447592;28;20099;-78
2022/11/04 21:39:25;;;;;;;0.10;0.10;;;;;;;6.52;100.00;101053.91;10453718;28;20025;-78
2022/11/04 21:44:25;;;;;;;0.00;0.00;;;;;;;6.57;100.00;101057.84;10455403;28;20376;-78
2022/11/04 21:49:26;;;;;;;0.00;0.00;;;;;;;6.62;100.00;101056.63;10469616;28;20028;-78
2022/11/04 21:54:26;;;;;;;0.10;0.10;;;;;;;6.71;100.00;101069.91;10454111;28;20088;-78
2022/11/04 21:59:26;;;;;;;0.00;0.00;;;;;;;6.70;100.00;101072.72;10453681;28;20021;-79
2022/11/04 22:04:27;;;;;;;0.10;0.10;;;;;;;6.70;100.00;101072.72;10458011;28;20036;-78
2022/11/04 22:09:27;;;;;;;0.00;0.00;;;;;;;6.70;100.00;101085.94;10480486;28;20056;-79
2022/11/04 22:14:28;;;;;;;0.00;0.00;;;;;;;6.67;100.00;101083.56;10465374;28;20017;-78
2022/11/04 22:19:28;;;;;;;0.00;0.00;;;;;;;6.63;100.00;101088.22;10464824;28;20083;-79
2022/11/04 22:24:28;;;;;;;0.00;0.00;;;;;;;6.53;100.00;101082.03;10463036;28;20124;-79
2022/11/04 22:29:29;;;;;;;0.10;0.10;;;;;;;6.46;100.00;101089.66;10456201;28;20043;-79
2022/11/04 22:34:29;;;;;;;0.00;0.00;;;;;;;6.41;100.00;101085.69;10463219;28;20017;-78
2022/11/04 22:39:30;;;;;;;0.00;0.00;;;;;;;6.32;100.00;101089.94;10470628;28;20025;-79
2022/11/04 22:44:30;;;;;;;0.00;0.00;;;;;;;6.21;100.00;101095.25;10469347;28;20031;-78
2022/11/04 22:49:30;;;;;;;0.08;0.08;;;;;;;6.10;100.00;101098.75;10470561;28;20024;-79
2022/11/04 22:54:31;;;;;;;0.00;0.00;;;;;;;6.05;100.00;101100.94;10484932;28;20435;-79
2022/11/04 22:59:31;;;;;;;0.00;0.00;;;;;;;6.04;100.00;101094.81;10461989;28;20021;-79
2022/11/04 23:04:31;;;;;;;0.00;0.00;;;;;;;6.14;100.00;101108.16;10463813;28;20032;-79
2022/11/04 23:18:40;;;;;;;0.00;0.00;;;;;;;6.24;100.00;101106.41;10469408;28;20028;-79
2022/11/04 23:20:14;;;;;;;0.10;0.10;;;;;;;6.25;100.00;101108.09;10468643;28;20511;-79
2022/11/04 23:25:15;;;;;;;0.00;0.00;;;;;;;6.23;100.00;101111.84;10468595;28;20452;-78
2022/11/04 23:30:21;;;;;;;0.00;0.00;;;;;;;6.18;100.00;101112.22;10474833;22;20065;-79
